createdAt,value
2019-06-07T00:00:53.669Z,13.02
2019-06-07T00:03:27.451Z,13.00
2019-06-07T00:05:50.724Z,12.97
2019-06-07T00:08:24.851Z,12.90
2019-06-07T00:10:45.195Z,12.93
2019-06-07T00:13:12.909Z,13.07
2019-06-07T00:15:39.785Z,13.10
2019-06-07T00:18:10.248Z,12.95
2019-06-07T00:20:34.280Z,12.90
2019-06-07T00:23:00.562Z,12.95
2019-06-07T00:25:26.777Z,12.93
2019-06-07T00:27:53.079Z,12.90
2019-06-07T00:30:37.626Z,12.85
2019-06-07T00:32:47.732Z,12.70
2019-06-07T00:35:15.383Z,12.67
2019-06-07T00:37:42.383Z,12.55
2019-06-07T00:40:16.178Z,12.54
2019-06-07T00:42:37.154Z,12.56
2019-06-07T00:45:07.182Z,12.60
2019-06-07T00:47:33.293Z,12.70
2019-06-07T00:49:59.554Z,12.68
2019-06-07T00:54:53.989Z,12.60
2019-06-07T00:57:22.224Z,12.64
2019-06-07T00:59:48.460Z,12.70
2019-06-07T01:02:16.678Z,12.54
2019-06-07T01:04:42.794Z,12.60
2019-06-07T01:07:08.900Z,12.60
2019-06-07T01:09:35.041Z,12.51
2019-06-07T01:12:01.256Z,12.43
2019-06-07T01:14:28.692Z,12.45
2019-06-07T01:17:01.488Z,12.56
2019-06-07T01:19:26.420Z,12.62
2019-06-07T01:21:51.660Z,12.66
2019-06-07T01:24:17.864Z,12.44
2019-06-07T01:26:44.102Z,12.37
2019-06-07T01:29:10.322Z,12.25
2019-06-07T01:31:36.695Z,12.14
2019-06-07T01:34:03.025Z,12.11
2019-06-07T01:36:31.006Z,12.15
2019-06-07T01:38:57.475Z,12.19
2019-06-07T01:41:25.902Z,12.21
2019-06-07T01:43:51.717Z,12.13
2019-06-07T01:46:18.212Z,12.13
2019-06-07T01:48:49.398Z,12.05
2019-06-07T01:51:13.085Z,11.84
2019-06-07T01:53:39.187Z,11.79
2019-06-07T01:56:05.468Z,11.89
2019-06-07T01:58:31.554Z,11.92
2019-06-07T02:00:57.668Z,11.95
2019-06-07T02:03:28.086Z,12.12
2019-06-07T02:05:51.983Z,12.13
2019-06-07T02:08:20.042Z,12.08
2019-06-07T02:10:46.178Z,12.09
2019-06-07T02:13:13.423Z,12.03
2019-06-07T02:15:39.648Z,12.06
2019-06-07T02:18:05.982Z,12.04
2019-06-07T02:20:34.512Z,12.04
2019-06-07T02:23:00.104Z,11.96
2019-06-07T02:25:49.584Z,11.86
2019-06-07T02:28:11.102Z,11.94
2019-06-07T02:30:47.078Z,11.82
2019-06-07T02:32:50.402Z,11.71
2019-06-07T02:35:16.808Z,11.69
2019-06-07T02:37:43.028Z,11.65
2019-06-07T02:40:12.360Z,11.45
2019-06-07T02:42:42.672Z,11.49
2019-06-07T02:45:07.923Z,11.62
2019-06-07T02:47:37.677Z,11.59
2019-06-07T02:50:06.558Z,11.57
2019-06-07T02:52:38.694Z,11.55
2019-06-07T02:55:00.753Z,11.50
2019-06-07T02:57:29.298Z,11.37
2019-06-07T03:00:16.569Z,11.17
2019-06-07T03:02:25.552Z,11.25
2019-06-07T03:04:51.492Z,11.20
2019-06-07T03:07:18.343Z,11.12
2019-06-07T03:09:45.358Z,11.02
2019-06-07T03:12:12.347Z,11.06
2019-06-07T03:14:39.593Z,11.05
2019-06-07T03:17:19.850Z,11.11
2019-06-07T03:19:48.898Z,11.08
2019-06-07T03:22:15.228Z,11.01
2019-06-07T03:24:44.168Z,11.02
2019-06-07T03:27:34.020Z,11.08
2019-06-07T03:29:41.367Z,11.06
2019-06-07T03:32:07.824Z,10.97
2019-06-07T03:34:39.275Z,11.01
2019-06-07T03:37:02.389Z,11.01
2019-06-07T03:39:29.656Z,10.98
2019-06-07T03:42:06.398Z,10.95
2019-06-07T03:44:25.252Z,10.95
2019-06-07T03:46:51.388Z,11.04
2019-06-07T03:49:17.504Z,11.03
2019-06-07T03:51:44.757Z,11.11
2019-06-07T03:54:10.932Z,11.10
2019-06-07T03:56:38.627Z,11.24
2019-06-07T03:59:05.359Z,11.42
2019-06-07T04:01:32.342Z,11.42
2019-06-07T04:03:59.061Z,11.35
2019-06-07T04:06:25.195Z,11.33
2019-06-07T04:08:51.586Z,11.30
2019-06-07T04:11:17.679Z,11.35
2019-06-07T04:13:43.894Z,11.38
2019-06-07T04:16:10.308Z,11.64
2019-06-07T04:18:40.868Z,11.64
2019-06-07T04:21:04.633Z,11.78
2019-06-07T04:23:33.130Z,11.90
2019-06-07T04:25:59.114Z,11.99
2019-06-07T04:29:15.617Z,11.97
2019-06-07T04:30:53.333Z,12.03
2019-06-07T04:33:20.580Z,12.08
2019-06-07T04:35:47.022Z,12.07
2019-06-07T04:38:14.084Z,11.94
2019-06-07T04:40:43.933Z,11.97
2019-06-07T04:43:11.250Z,12.22
2019-06-07T04:45:45.867Z,12.24
2019-06-07T04:48:06.408Z,12.39
2019-06-07T04:50:34.302Z,12.49
2019-06-07T04:53:03.332Z,12.64
2019-06-07T04:55:29.646Z,12.71
2019-06-07T04:57:57.096Z,12.75
2019-06-07T05:02:57.983Z,12.84
2019-06-07T05:05:24.487Z,12.97
2019-06-07T05:07:50.580Z,13.12
2019-06-07T05:10:16.693Z,13.22
2019-06-07T05:12:44.189Z,13.17
2019-06-07T05:15:10.930Z,13.14
2019-06-07T05:17:39.933Z,13.25
2019-06-07T05:20:05.644Z,13.40
2019-06-07T05:22:34.923Z,13.46
2019-06-07T05:24:59.882Z,13.40
2019-06-07T05:27:26.157Z,13.41
2019-06-07T05:30:09.517Z,13.56
2019-06-07T05:32:20.564Z,13.56
2019-06-07T05:34:47.549Z,13.59
2019-06-07T05:37:13.917Z,13.76
2019-06-07T05:39:43.260Z,13.94
2019-06-07T05:42:08.259Z,13.99
2019-06-07T05:44:36.371Z,14.00
2019-06-07T05:47:02.908Z,14.22
2019-06-07T05:49:29.231Z,14.36
2019-06-07T05:51:55.471Z,14.41
2019-06-07T05:54:21.679Z,14.52
2019-06-07T05:56:48.998Z,14.49
2019-06-07T05:59:15.495Z,14.68
2019-06-07T06:01:48.021Z,14.95
2019-06-07T06:04:09.877Z,15.03
2019-06-07T06:06:36.407Z,15.15
2019-06-07T06:10:10.748Z,15.46
2019-06-07T06:12:40.831Z,15.47
2019-06-07T06:15:06.307Z,15.56
2019-06-07T06:17:32.394Z,15.50
2019-06-07T06:19:58.768Z,15.58
2019-06-07T06:22:24.911Z,15.82
2019-06-07T06:25:29.703Z,16.00
2019-06-07T06:28:02.582Z,16.01
2019-06-07T06:29:50.420Z,16.17
2019-06-07T06:32:41.073Z,16.28
2019-06-07T06:34:47.090Z,16.37
2019-06-07T06:37:11.960Z,16.59
2019-06-07T06:39:39.466Z,16.61
2019-06-07T06:42:05.630Z,16.68
2019-06-07T06:44:31.713Z,16.62
2019-06-07T06:46:58.652Z,16.66
2019-06-07T06:49:24.808Z,16.80
2019-06-07T06:51:53.630Z,16.87
2019-06-07T06:54:39.486Z,16.97
2019-06-07T06:56:47.600Z,17.15
2019-06-07T06:59:38.047Z,17.14
2019-06-07T07:01:45.140Z,17.15
2019-06-07T07:04:13.586Z,17.06
2019-06-07T07:06:41.497Z,17.31
2019-06-07T07:09:08.354Z,17.11
2019-06-07T07:11:52.241Z,17.43
2019-06-07T07:14:03.382Z,17.70
2019-06-07T07:16:29.484Z,17.78
2019-06-07T07:18:55.551Z,17.80
2019-06-07T07:21:21.632Z,17.63
2019-06-07T07:24:15.153Z,17.21
2019-06-07T07:26:15.767Z,17.12
2019-06-07T07:28:43.074Z,17.38
2019-06-07T07:31:09.966Z,17.62
2019-06-07T07:36:22.684Z,17.76
2019-06-07T07:38:32.398Z,18.01
2019-06-07T07:41:14.677Z,17.86
2019-06-07T07:43:26.567Z,17.57
2019-06-07T07:45:59.242Z,17.61
2019-06-07T07:48:20.878Z,18.05
2019-06-07T07:50:49.893Z,18.32
2019-06-07T07:53:15.208Z,17.89
2019-06-07T07:55:41.337Z,18.03
2019-06-07T07:58:07.528Z,17.95
2019-06-07T08:00:52.234Z,18.10
2019-06-07T08:03:04.486Z,18.48
2019-06-07T08:05:42.475Z,18.33
2019-06-07T08:08:01.586Z,18.48
2019-06-07T08:10:27.217Z,18.41
2019-06-07T08:13:16.282Z,18.32
2019-06-07T08:15:21.607Z,18.19
2019-06-07T08:17:50.748Z,18.40
2019-06-07T08:20:16.283Z,18.39
2019-06-07T08:22:42.601Z,18.20
2019-06-07T08:25:09.440Z,18.04
2019-06-07T08:27:35.737Z,18.44
2019-06-07T08:30:35.446Z,18.53
2019-06-07T08:32:35.830Z,18.35
2019-06-07T08:35:06.956Z,18.38
2019-06-07T08:38:14.048Z,18.67
2019-06-07T08:40:06.225Z,18.58
2019-06-07T08:42:37.540Z,18.72
2019-06-07T08:45:03.646Z,18.76
2019-06-07T08:47:28.663Z,19.25
2019-06-07T08:49:59.303Z,18.89
2019-06-07T08:52:22.862Z,19.03
2019-06-07T08:54:49.059Z,18.64
2019-06-07T08:57:21.397Z,18.81
2019-06-07T08:59:44.209Z,18.96
2019-06-07T09:02:23.215Z,19.20
2019-06-07T09:04:38.501Z,19.54
2019-06-07T09:07:18.435Z,19.61
2019-06-07T09:09:32.826Z,19.52
2019-06-07T09:12:03.233Z,19.41
2019-06-07T09:14:27.116Z,19.63
2019-06-07T09:16:58.792Z,19.76
2019-06-07T09:19:21.338Z,20.12
2019-06-07T09:21:47.457Z,20.13
2019-06-07T09:24:13.540Z,20.08
2019-06-07T09:26:39.818Z,20.20
2019-06-07T09:29:09.469Z,20.08
2019-06-07T09:31:51.889Z,20.00
2019-06-07T09:34:06.628Z,19.95
2019-06-07T09:36:30.333Z,20.35
2019-06-07T09:38:58.834Z,19.87
2019-06-07T09:41:46.177Z,20.55
2019-06-07T09:44:04.740Z,20.99
2019-06-07T09:46:20.735Z,20.61
2019-06-07T09:49:10.743Z,20.50
2019-06-07T09:51:19.839Z,19.78
2019-06-07T09:53:43.116Z,20.28
2019-06-07T09:56:12.043Z,20.57
2019-06-07T09:58:54.210Z,21.41
2019-06-07T10:01:12.222Z,21.33
2019-06-07T10:03:33.404Z,20.87
2019-06-07T10:06:00.413Z,21.09
2019-06-07T10:09:42.405Z,21.51
2019-06-07T10:10:55.663Z,21.44
2019-06-07T10:13:21.869Z,22.09
2019-06-07T10:15:47.958Z,21.86
2019-06-07T10:18:14.153Z,21.67
2019-06-07T10:20:40.366Z,20.96
2019-06-07T10:23:07.980Z,20.93
2019-06-07T10:25:34.751Z,20.64
2019-06-07T10:28:01.949Z,21.27
2019-06-07T10:30:28.048Z,21.98
2019-06-07T10:32:54.440Z,22.06
2019-06-07T10:35:20.639Z,22.04
2019-06-07T10:37:47.850Z,22.02
2019-06-07T10:40:14.661Z,21.81
2019-06-07T10:42:40.749Z,21.98
2019-06-07T10:45:08.287Z,21.98
2019-06-07T10:47:35.745Z,22.36
2019-06-07T10:50:03.792Z,22.25
2019-06-07T10:52:31.177Z,22.05
2019-06-07T10:54:57.575Z,22.40
2019-06-07T10:57:23.657Z,22.13
2019-06-07T10:59:49.851Z,22.37
2019-06-07T11:02:16.592Z,21.71
2019-06-07T11:04:42.794Z,21.71
2019-06-07T11:07:10.113Z,21.47
2019-06-07T11:09:36.507Z,21.92
2019-06-07T11:12:04.237Z,22.64
2019-06-07T11:14:30.719Z,23.10
2019-06-07T11:16:57.060Z,23.23
2019-06-07T11:19:23.160Z,23.69
2019-06-07T11:21:49.620Z,23.40
2019-06-07T11:24:18.713Z,23.17
2019-06-07T11:26:44.287Z,23.50
2019-06-07T11:29:11.044Z,23.48
2019-06-07T11:31:38.655Z,23.66
2019-06-07T11:34:06.262Z,23.95
2019-06-07T11:36:32.601Z,23.54
2019-06-07T11:38:58.803Z,23.12
2019-06-07T11:41:25.002Z,23.30
2019-06-07T11:43:51.215Z,23.88
2019-06-07T11:46:17.398Z,22.91
2019-06-07T11:48:43.585Z,23.17
2019-06-07T11:51:10.802Z,23.44
2019-06-07T11:53:37.130Z,23.68
2019-06-07T11:56:03.419Z,24.54
2019-06-07T11:58:29.633Z,23.96
2019-06-07T12:00:56.062Z,24.54
2019-06-07T12:03:22.258Z,24.69
2019-06-07T12:05:48.359Z,24.81
2019-06-07T12:08:14.451Z,25.02
2019-06-07T12:10:42.748Z,25.11
2019-06-07T12:13:10.364Z,25.40
2019-06-07T12:15:36.582Z,25.76
2019-06-07T12:18:02.841Z,25.61
2019-06-07T12:20:29.073Z,25.34
2019-06-07T12:22:55.285Z,24.48
2019-06-07T12:25:25.000Z,24.94
2019-06-07T12:27:49.505Z,25.07
2019-06-07T12:30:23.495Z,25.04
2019-06-07T12:32:44.320Z,25.66
2019-06-07T12:35:11.496Z,25.88
2019-06-07T12:37:44.599Z,26.19
2019-06-07T12:40:07.113Z,26.46
2019-06-07T12:42:33.328Z,25.45
2019-06-07T12:44:59.429Z,25.99
2019-06-07T12:47:25.609Z,24.67
2019-06-07T12:49:51.708Z,24.44
2019-06-07T12:52:20.059Z,25.10
2019-06-07T12:54:46.127Z,25.32
2019-06-07T12:57:13.700Z,25.47
2019-06-07T12:59:40.292Z,25.56
2019-06-07T13:02:06.696Z,25.59
2019-06-07T13:04:33.018Z,25.41
2019-06-07T13:06:59.314Z,25.72
2019-06-07T13:09:25.508Z,25.77
2019-06-07T13:11:51.706Z,25.82
2019-06-07T13:14:18.048Z,25.72
2019-06-07T13:16:44.261Z,25.55
2019-06-07T13:19:10.406Z,25.65
2019-06-07T13:21:36.632Z,25.49
2019-06-07T13:24:03.055Z,25.98
2019-06-07T13:26:29.126Z,25.79
2019-06-07T13:28:55.240Z,25.82
2019-06-07T13:31:23.451Z,26.11
2019-06-07T13:33:49.781Z,26.20
2019-06-07T13:36:16.090Z,26.36
2019-06-07T13:38:42.227Z,25.82
2019-06-07T13:41:08.541Z,25.51
2019-06-07T13:43:35.772Z,25.12
2019-06-07T13:46:03.064Z,24.54
2019-06-07T13:48:29.138Z,24.80
2019-06-07T13:50:55.378Z,25.12
2019-06-07T13:53:22.721Z,25.34
2019-06-07T13:55:49.052Z,25.50
2019-06-07T13:58:15.256Z,25.66
2019-06-07T14:00:42.541Z,25.69
2019-06-07T14:03:08.950Z,25.02
2019-06-07T14:05:35.152Z,24.78
2019-06-07T14:08:01.333Z,24.54
2019-06-07T14:10:27.631Z,25.04
2019-06-07T14:12:53.889Z,25.15
2019-06-07T14:15:20.578Z,25.44
2019-06-07T14:17:47.035Z,25.46
2019-06-07T14:20:13.620Z,25.14
2019-06-07T14:22:39.999Z,25.20
2019-06-07T14:25:08.339Z,24.85
2019-06-07T14:27:34.557Z,24.48
2019-06-07T14:30:00.646Z,24.31
2019-06-07T14:32:26.870Z,24.44
2019-06-07T14:34:52.963Z,24.48
2019-06-07T14:37:19.032Z,24.57
2019-06-07T14:39:46.315Z,24.52
2019-06-07T14:42:12.444Z,24.66
2019-06-07T14:44:38.644Z,24.87
2019-06-07T14:47:04.835Z,25.07
2019-06-07T14:49:32.528Z,24.76
2019-06-07T14:51:58.853Z,24.76
2019-06-07T14:54:25.060Z,24.68
2019-06-07T14:56:51.274Z,24.81
2019-06-07T14:59:17.584Z,24.89
2019-06-07T15:01:43.693Z,24.54
2019-06-07T15:04:09.941Z,24.50
2019-06-07T15:06:36.160Z,24.45
2019-06-07T15:09:05.377Z,24.55
2019-06-07T15:11:33.035Z,24.63
2019-06-07T15:13:59.258Z,24.50
2019-06-07T15:16:25.475Z,24.61
2019-06-07T15:18:51.792Z,24.70
2019-06-07T15:21:17.998Z,24.76
2019-06-07T15:23:44.512Z,24.69
2019-06-07T15:26:10.799Z,24.49
2019-06-07T15:28:38.481Z,24.59
2019-06-07T15:31:04.810Z,24.49
2019-06-07T15:33:31.829Z,24.55
2019-06-07T15:35:58.015Z,24.68
2019-06-07T15:38:24.108Z,24.61
2019-06-07T15:40:50.204Z,24.57
2019-06-07T15:43:16.331Z,24.75
2019-06-07T15:45:43.248Z,24.84
2019-06-07T15:48:09.358Z,24.86
2019-06-07T15:50:36.148Z,24.85
2019-06-07T15:53:02.526Z,24.79
2019-06-07T15:55:28.592Z,24.65
2019-06-07T15:57:54.925Z,24.61
2019-06-07T16:00:21.329Z,24.54
2019-06-07T16:02:47.389Z,24.38
2019-06-07T16:05:14.480Z,24.06
2019-06-07T16:07:40.765Z,23.93
2019-06-07T16:10:07.739Z,23.94
2019-06-07T16:12:34.577Z,23.87
2019-06-07T16:15:00.749Z,23.88
2019-06-07T16:17:27.082Z,23.75
2019-06-07T16:19:53.415Z,23.67
2019-06-07T16:22:19.576Z,23.69
2019-06-07T16:24:45.805Z,23.76
2019-06-07T16:27:12.126Z,23.63
2019-06-07T16:29:38.592Z,23.70
2019-06-07T16:32:04.814Z,23.66
2019-06-07T16:34:31.186Z,23.63
2019-06-07T16:36:57.263Z,23.59
2019-06-07T16:39:23.603Z,23.49
2019-06-07T16:41:49.802Z,23.59
2019-06-07T16:44:15.914Z,23.62
2019-06-07T16:46:42.915Z,23.72
2019-06-07T16:49:09.153Z,23.85
2019-06-07T16:51:35.368Z,23.74
2019-06-07T16:54:01.791Z,23.69
2019-06-07T16:56:28.297Z,23.73
2019-06-07T16:58:54.645Z,23.60
2019-06-07T17:01:20.845Z,23.46
2019-06-07T17:03:47.615Z,23.61
2019-06-07T17:06:13.983Z,23.75
2019-06-07T17:08:40.283Z,23.68
2019-06-07T17:11:06.589Z,23.55
2019-06-07T17:13:33.953Z,23.61
2019-06-07T17:16:00.456Z,23.55
2019-06-07T17:18:26.661Z,23.43
2019-06-07T17:20:52.784Z,23.41
2019-06-07T17:23:18.870Z,23.46
2019-06-07T17:25:45.438Z,23.37
2019-06-07T17:28:12.376Z,23.34
2019-06-07T17:30:39.780Z,23.34
2019-06-07T17:33:06.328Z,23.40
2019-06-07T17:35:32.548Z,23.51
2019-06-07T17:37:58.873Z,23.55
2019-06-07T17:40:25.079Z,23.43
2019-06-07T17:42:51.333Z,23.55
2019-06-07T17:45:19.737Z,23.63
2019-06-07T17:47:46.071Z,23.51
2019-06-07T17:50:14.411Z,23.48
2019-06-07T17:52:41.786Z,23.53
2019-06-07T17:55:09.928Z,23.61
2019-06-07T17:57:36.319Z,23.55
2019-06-07T18:00:27.726Z,23.50
2019-06-07T18:02:35.613Z,23.45
2019-06-07T18:05:02.408Z,23.31
2019-06-07T18:07:29.829Z,22.89
2019-06-07T18:09:56.526Z,22.34
2019-06-07T18:12:22.826Z,19.27
2019-06-07T18:14:49.994Z,17.09
2019-06-07T18:17:16.307Z,16.30
2019-06-07T18:19:43.319Z,16.23
2019-06-07T18:22:10.796Z,16.17
2019-06-07T18:24:37.024Z,15.97
2019-06-07T18:27:06.867Z,15.80
2019-06-07T18:29:31.544Z,15.92
2019-06-07T18:32:00.204Z,15.82
2019-06-07T18:34:25.761Z,15.80
2019-06-07T18:36:53.123Z,15.72
2019-06-07T18:39:19.289Z,15.65
2019-06-07T18:41:45.505Z,15.49
2019-06-07T18:44:21.237Z,15.56
2019-06-07T18:46:40.029Z,15.41
2019-06-07T18:49:06.265Z,15.41
2019-06-07T18:51:32.495Z,15.42
2019-06-07T18:53:58.659Z,15.38
2019-06-07T18:56:25.725Z,15.41
2019-06-07T18:58:53.079Z,15.32
2019-06-07T19:01:19.584Z,15.30
2019-06-07T19:03:47.144Z,15.33
2019-06-07T19:06:14.114Z,15.43
2019-06-07T19:08:40.377Z,15.29
2019-06-07T19:11:07.672Z,15.20
2019-06-07T19:13:33.871Z,15.12
2019-06-07T19:16:00.071Z,15.09
2019-06-07T19:18:26.316Z,15.07
2019-06-07T19:20:54.191Z,15.03
2019-06-07T19:23:20.588Z,14.98
2019-06-07T19:25:46.910Z,15.07
2019-06-07T19:28:13.018Z,15.01
2019-06-07T19:30:39.319Z,15.06
2019-06-07T19:33:05.488Z,15.06
2019-06-07T19:35:31.757Z,15.12
2019-06-07T19:37:58.034Z,15.05
2019-06-07T19:40:24.251Z,15.02
2019-06-07T19:42:52.070Z,14.92
2019-06-07T19:45:34.235Z,15.01
2019-06-07T19:47:47.867Z,15.00
2019-06-07T19:50:14.394Z,15.01
2019-06-07T19:52:40.595Z,15.06
2019-06-07T19:55:09.955Z,15.09
2019-06-07T19:57:36.802Z,15.10
2019-06-07T20:00:13.594Z,15.12
2019-06-07T20:02:34.758Z,15.16
2019-06-07T20:05:04.736Z,15.15
2019-06-07T20:07:30.276Z,15.17
2019-06-07T20:09:56.586Z,15.18
2019-06-07T20:12:23.034Z,15.20
2019-06-07T20:14:49.168Z,15.09
2019-06-07T20:17:15.289Z,15.08
2019-06-07T20:19:41.539Z,15.18
2019-06-07T20:22:07.718Z,15.30
2019-06-07T20:24:33.979Z,15.36
2019-06-07T20:27:02.331Z,15.30
2019-06-07T20:29:30.183Z,15.39
2019-06-07T20:31:56.566Z,15.39
2019-06-07T20:34:22.787Z,15.38
2019-06-07T20:36:48.918Z,15.37
2019-06-07T20:39:15.148Z,15.35
2019-06-07T20:41:41.606Z,15.27
2019-06-07T20:44:08.147Z,15.32
2019-06-07T20:46:34.402Z,15.21
2019-06-07T20:49:02.221Z,15.24
2019-06-07T20:51:28.453Z,15.25
2019-06-07T20:53:54.655Z,15.13
2019-06-07T20:56:24.387Z,14.96
2019-06-07T20:58:49.309Z,15.06
2019-06-07T21:01:15.649Z,15.15
2019-06-07T21:03:41.954Z,15.14
2019-06-07T21:06:08.032Z,15.19
2019-06-07T21:08:34.203Z,15.24
2019-06-07T21:11:01.624Z,15.14
2019-06-07T21:13:28.862Z,15.06
2019-06-07T21:15:55.087Z,15.20
2019-06-07T21:18:21.420Z,15.31
2019-06-07T21:20:47.624Z,15.43
2019-06-07T21:23:13.798Z,15.20
2019-06-07T21:25:39.914Z,15.20
2019-06-07T21:28:07.246Z,15.29
2019-06-07T21:30:33.435Z,15.29
2019-06-07T21:32:59.657Z,15.26
2019-06-07T21:35:25.984Z,15.23
2019-06-07T21:37:52.148Z,15.22
2019-06-07T21:40:18.440Z,15.16
2019-06-07T21:42:44.617Z,15.16
2019-06-07T21:45:11.887Z,15.17
2019-06-07T21:47:38.283Z,15.21
2019-06-07T21:50:06.638Z,15.28
2019-06-07T21:52:32.862Z,15.28
2019-06-07T21:54:58.950Z,15.09
2019-06-07T21:57:25.055Z,14.93
2019-06-07T21:59:51.270Z,14.96
2019-06-07T22:02:17.706Z,14.93
2019-06-07T22:04:43.930Z,14.87
2019-06-07T22:07:11.480Z,14.77
2019-06-07T22:09:37.715Z,14.72
2019-06-07T22:12:04.535Z,14.64
2019-06-07T22:14:31.070Z,14.62
2019-06-07T22:16:57.251Z,14.64
2019-06-07T22:19:23.371Z,14.61
2019-06-07T22:22:02.211Z,14.52
2019-06-07T22:24:17.555Z,14.47
2019-06-07T22:26:43.738Z,14.44
2019-06-07T22:29:10.347Z,14.42
2019-06-07T22:31:36.682Z,14.39
2019-06-07T22:34:03.427Z,14.36
2019-06-07T22:36:29.859Z,14.34
2019-06-07T22:38:55.935Z,14.32
2019-06-07T22:41:23.244Z,14.31
2019-06-07T22:43:49.329Z,14.30
2019-06-07T22:46:15.519Z,14.31
2019-06-07T22:48:41.791Z,14.34
2019-06-07T22:51:11.333Z,14.32
2019-06-07T22:53:38.969Z,14.34
2019-06-07T22:56:07.746Z,14.34
2019-06-07T22:58:34.000Z,14.35
2019-06-07T23:01:00.110Z,14.38
2019-06-07T23:03:26.220Z,14.39
2019-06-07T23:05:52.388Z,14.36
2019-06-07T23:08:19.095Z,14.42
2019-06-07T23:10:45.372Z,14.40
2019-06-07T23:13:11.568Z,14.42
2019-06-07T23:15:37.650Z,14.39
2019-06-07T23:18:03.880Z,14.40
2019-06-07T23:20:31.458Z,14.43
2019-06-07T23:22:57.555Z,14.44
2019-06-07T23:25:24.709Z,14.45
2019-06-07T23:27:51.027Z,14.50
2019-06-07T23:30:21.445Z,14.49
2019-06-07T23:32:47.490Z,14.52
2019-06-07T23:35:14.813Z,14.51
2019-06-07T23:37:41.276Z,14.49
2019-06-07T23:40:07.854Z,14.52
2019-06-07T23:42:33.972Z,14.52
2019-06-07T23:45:00.035Z,14.51
2019-06-07T23:47:26.126Z,14.53
2019-06-07T23:49:52.197Z,14.50
2019-06-07T23:52:18.350Z,14.49
2019-06-07T23:54:44.444Z,14.50
2019-06-07T23:57:12.025Z,14.47
2019-06-07T23:59:38.387Z,14.45
